createdAt,value
2022-09-27T00:00:16.290Z,29.45909
2022-09-27T00:05:17.244Z,29.53806
2022-09-27T00:10:18.173Z,29.50847
2022-09-27T00:15:19.083Z,29.46669
2022-09-27T00:20:20.020Z,29.41873
2022-09-27T00:25:20.946Z,29.48
2022-09-27T00:30:21.935Z,29.45692
2022-09-27T00:35:22.853Z,29.43971
2022-09-27T00:40:23.805Z,29.48193
2022-09-27T00:45:24.770Z,29.46467
2022-09-27T00:50:25.743Z,29.50702
2022-09-27T00:55:26.679Z,29.56757
2022-09-27T01:00:27.641Z,29.56163
2022-09-27T01:05:28.553Z,29.60346
2022-09-27T01:10:29.480Z,29.58552
2022-09-27T01:15:30.509Z,29.5128
2022-09-27T01:20:31.501Z,29.51911
2022-09-27T01:25:32.425Z,29.47735
2022-09-27T01:30:33.790Z,29.51316
2022-09-27T01:35:34.751Z,29.42408
2022-09-27T01:40:35.765Z,29.38853
2022-09-27T01:45:36.739Z,29.44251
2022-09-27T01:50:37.679Z,29.42013
2022-09-27T01:55:38.597Z,29.46786
2022-09-27T02:00:39.520Z,29.42577
2022-09-27T02:05:40.437Z,29.32336
2022-09-27T02:10:41.792Z,29.33406
2022-09-27T02:15:42.826Z,29.2731
2022-09-27T02:20:43.830Z,29.28395
2022-09-27T02:25:44.706Z,29.45433
2022-09-27T02:30:45.753Z,29.24017
2022-09-27T02:35:46.754Z,29.25245
2022-09-27T02:40:47.955Z,29.33578
2022-09-27T02:45:49.073Z,29.3708
2022-09-27T02:50:50.149Z,29.33469
2022-09-27T02:55:51.194Z,29.36596
2022-09-27T03:00:52.174Z,29.36135
2022-09-27T03:05:53.091Z,29.4153
2022-09-27T03:10:54.061Z,29.3498
2022-09-27T03:15:59.368Z,29.32045
2022-09-27T03:21:02.508Z,29.3273
2022-09-27T03:26:03.434Z,29.30221
2022-09-27T03:31:04.385Z,29.27313
2022-09-27T03:36:05.435Z,29.38611
2022-09-27T03:41:06.367Z,29.71374
2022-09-27T03:46:07.409Z,29.81395
2022-09-27T03:51:08.491Z,30.16567
2022-09-27T03:56:09.579Z,30.42732
2022-09-27T04:01:10.602Z,30.66456
2022-09-27T04:06:11.628Z,30.81219
2022-09-27T04:11:12.569Z,30.90608
2022-09-27T04:16:13.493Z,31.07711
2022-09-27T04:21:14.470Z,31.13716
2022-09-27T04:26:15.408Z,31.2378
2022-09-27T04:31:16.460Z,31.26757
2022-09-27T04:36:17.405Z,31.41749
2022-09-27T04:41:18.331Z,31.51255
2022-09-27T04:46:19.293Z,31.541
2022-09-27T04:51:20.285Z,31.62328
2022-09-27T04:56:21.211Z,31.68287
2022-09-27T05:01:22.171Z,31.87345
2022-09-27T05:06:23.173Z,32.03478
2022-09-27T05:11:24.066Z,32.18869
2022-09-27T05:16:25.063Z,32.33137
2022-09-27T05:21:26.063Z,32.64003
2022-09-27T05:26:26.981Z,32.90691
2022-09-27T05:31:28.071Z,33.33491
2022-09-27T05:36:29.041Z,33.60038
2022-09-27T05:41:30.182Z,33.91991
2022-09-27T05:46:31.344Z,34.15025
2022-09-27T05:51:32.308Z,34.29577
2022-09-27T05:56:33.219Z,34.56177
2022-09-27T06:01:34.201Z,34.73274
2022-09-27T06:06:35.308Z,34.83215
2022-09-27T06:11:36.216Z,34.91413
2022-09-27T06:16:37.224Z,35.11012
2022-09-27T06:21:38.218Z,35.24038
2022-09-27T06:26:39.115Z,35.34688
2022-09-27T06:31:40.007Z,35.49495
2022-09-27T06:36:41.001Z,35.66648
2022-09-27T06:41:42.271Z,35.75592
2022-09-27T06:46:43.299Z,35.86185
2022-09-27T06:51:44.337Z,35.97303
2022-09-27T06:56:45.300Z,36.11578
2022-09-27T07:01:46.378Z,36.23964
2022-09-27T07:06:47.487Z,36.20981
2022-09-27T07:11:48.428Z,36.28581
2022-09-27T07:16:49.445Z,36.24368
2022-09-27T07:21:50.496Z,36.22497
2022-09-27T07:26:51.446Z,36.48564
2022-09-27T07:31:52.379Z,36.50331
2022-09-27T07:36:53.281Z,36.50825
2022-09-27T07:41:54.204Z,36.56092
2022-09-27T07:46:55.098Z,36.70305
2022-09-27T07:51:56.076Z,36.8974
2022-09-27T07:56:57.010Z,36.87271
2022-09-27T08:01:57.974Z,36.71901
2022-09-27T08:06:58.951Z,36.7841
2022-09-27T08:11:59.873Z,36.88352
2022-09-27T08:17:00.791Z,36.84218
2022-09-27T08:22:01.820Z,36.76492
2022-09-27T08:27:02.864Z,36.80061
2022-09-27T08:32:03.825Z,37.00197
2022-09-27T08:37:04.805Z,37.04957
2022-09-27T08:42:05.739Z,37.07849
2022-09-27T08:47:06.663Z,37.06699
2022-09-27T08:52:07.579Z,37.14358
2022-09-27T08:57:08.521Z,36.97594
2022-09-27T09:02:10.149Z,36.92823
2022-09-27T09:07:14.216Z,37.08237
2022-09-27T09:12:15.159Z,37.04117
2022-09-27T09:17:16.078Z,37.02291
2022-09-27T09:22:17.019Z,36.9514
2022-09-27T09:27:17.953Z,36.97442
2022-09-27T09:32:18.852Z,36.80166
2022-09-27T09:37:19.768Z,36.78371
2022-09-27T09:42:20.685Z,36.74927
2022-09-27T09:47:21.613Z,36.85058
2022-09-27T09:52:22.549Z,36.87937
2022-09-27T09:57:23.447Z,36.49374
2022-09-27T10:02:24.456Z,35.99696
2022-09-27T10:07:25.379Z,35.41761
2022-09-27T10:12:26.287Z,35.58694
2022-09-27T10:17:27.270Z,35.72082
2022-09-27T10:22:28.243Z,35.88236
2022-09-27T10:27:29.131Z,35.84123
2022-09-27T10:32:30.083Z,35.90428
2022-09-27T10:37:30.995Z,35.61239
2022-09-27T10:42:31.947Z,35.11738
2022-09-27T10:47:32.965Z,34.66465
2022-09-27T10:52:33.978Z,34.22696
2022-09-27T10:57:34.909Z,33.94413
2022-09-27T11:02:35.849Z,33.94832
2022-09-27T11:07:36.780Z,33.64845
2022-09-27T11:12:37.701Z,33.11393
2022-09-27T11:17:38.610Z,32.83204
2022-09-27T11:22:39.590Z,32.48502
2022-09-27T11:27:40.523Z,32.79501
2022-09-27T11:32:41.691Z,32.75552
2022-09-27T11:37:42.961Z,32.8534
2022-09-27T11:42:43.897Z,32.89488
2022-09-27T11:47:44.895Z,33.32215
2022-09-27T11:52:45.914Z,33.43383
2022-09-27T11:57:46.803Z,34.33483
2022-09-27T12:02:47.827Z,34.84152
2022-09-27T12:07:48.771Z,35.13526
2022-09-27T12:12:49.716Z,35.34982
2022-09-27T12:17:50.657Z,35.56972
2022-09-27T12:22:59.132Z,35.69949
2022-09-27T12:28:00.770Z,35.90318
2022-09-27T12:33:01.715Z,35.86503
2022-09-27T12:38:02.637Z,35.987
2022-09-27T12:43:03.528Z,36.02634
2022-09-27T12:48:04.491Z,36.04749
2022-09-27T12:53:05.483Z,35.98447
2022-09-27T12:58:06.513Z,35.83972
2022-09-27T13:03:16.633Z,35.3007
2022-09-27T13:08:18.540Z,34.23216
2022-09-27T13:13:19.459Z,34.09183
2022-09-27T13:18:20.395Z,34.12178
2022-09-27T13:23:21.339Z,34.41117
2022-09-27T13:28:22.261Z,34.46632
2022-09-27T13:33:23.201Z,33.8886
2022-09-27T13:38:24.130Z,33.91663
2022-09-27T13:43:25.071Z,33.72699
2022-09-27T13:48:25.986Z,33.81184
2022-09-27T13:53:26.961Z,33.95555
2022-09-27T13:58:27.944Z,34.05685
2022-09-27T14:03:28.879Z,33.83872
2022-09-27T14:08:29.807Z,33.88118
2022-09-27T14:13:30.774Z,33.71134
2022-09-27T14:18:31.678Z,33.64602
2022-09-27T14:23:32.685Z,33.97371
2022-09-27T14:28:33.602Z,34.07736
2022-09-27T14:33:34.584Z,34.03687
2022-09-27T14:38:38.519Z,33.84244
2022-09-27T14:43:39.967Z,33.59341
2022-09-27T14:48:40.991Z,33.48214
2022-09-27T14:53:42.422Z,33.3986
2022-09-27T14:58:47.489Z,33.32098
2022-09-27T15:03:49.243Z,33.21651
2022-09-27T15:08:50.392Z,33.12564
2022-09-27T15:13:51.344Z,33.20378
2022-09-27T15:18:52.273Z,33.35197
2022-09-27T15:23:53.199Z,33.38314
2022-09-27T15:28:54.118Z,33.57119
2022-09-27T15:33:55.045Z,33.72761
2022-09-27T15:38:55.982Z,33.78263
2022-09-27T15:43:56.955Z,33.78992
2022-09-27T15:48:57.901Z,34.10492
2022-09-27T15:53:58.849Z,34.35963
2022-09-27T15:58:59.835Z,34.37839
2022-09-27T16:04:00.769Z,34.50201
2022-09-27T16:09:01.902Z,34.50052
2022-09-27T16:14:02.836Z,34.3223
2022-09-27T16:19:03.854Z,34.31578
2022-09-27T16:24:06.330Z,34.26856
2022-09-27T16:29:07.421Z,34.42362
2022-09-27T16:34:08.344Z,34.32777
2022-09-27T16:39:09.285Z,34.34699
2022-09-27T16:44:10.842Z,34.52592
2022-09-27T16:49:11.729Z,34.54475
2022-09-27T16:54:12.773Z,34.83461
2022-09-27T16:59:13.748Z,34.91149
2022-09-27T17:04:14.651Z,34.93631
2022-09-27T17:09:15.566Z,35.11474
2022-09-27T17:14:17.080Z,35.18002
2022-09-27T17:19:18.209Z,35.20433
2022-09-27T17:24:19.187Z,35.32325
2022-09-27T17:29:20.143Z,35.29321
2022-09-27T17:34:21.083Z,35.25279
2022-09-27T17:39:22.002Z,35.29407
2022-09-27T17:44:23.020Z,35.27002
2022-09-27T17:49:23.942Z,35.18692
2022-09-27T17:54:24.863Z,34.97491
2022-09-27T17:59:25.772Z,35.04722
2022-09-27T18:04:26.734Z,35.17744
2022-09-27T18:09:27.649Z,35.1301
2022-09-27T18:14:28.574Z,35.11285
2022-09-27T18:19:29.493Z,35.09034
2022-09-27T18:24:30.427Z,35.30543
2022-09-27T18:29:31.354Z,35.5083
2022-09-27T18:34:32.271Z,35.61023
2022-09-27T18:39:33.212Z,35.66951
2022-09-27T18:44:34.140Z,35.57629
2022-09-27T18:49:35.114Z,35.57673
2022-09-27T18:54:36.115Z,35.57682
2022-09-27T18:59:37.047Z,35.54059
2022-09-27T19:04:37.987Z,35.44849
2022-09-27T19:09:38.972Z,35.46164
2022-09-27T19:14:39.899Z,35.2678
2022-09-27T19:19:40.819Z,35.13302
2022-09-27T19:24:41.803Z,35.08625
2022-09-27T19:29:43.256Z,34.98091
2022-09-27T19:34:44.167Z,34.87632
2022-09-27T19:39:45.111Z,34.87154
2022-09-27T19:44:46.049Z,34.69419
2022-09-27T19:49:47.115Z,34.61254
2022-09-27T19:54:48.037Z,34.34212
2022-09-27T19:59:49.035Z,34.11383
2022-09-27T20:04:49.950Z,34.07417
2022-09-27T20:09:50.862Z,34.03916
2022-09-27T20:14:51.850Z,33.95652
2022-09-27T20:19:52.776Z,33.92802
2022-09-27T20:24:53.680Z,33.90578
2022-09-27T20:29:54.652Z,33.94165
2022-09-27T20:34:55.559Z,33.88938
2022-09-27T20:39:56.487Z,33.83645
2022-09-27T20:44:57.395Z,33.81901
2022-09-27T20:49:58.325Z,33.76123
2022-09-27T20:54:59.263Z,33.76331
2022-09-27T21:00:00.192Z,33.86967
2022-09-27T21:05:01.139Z,33.89862
2022-09-27T21:10:02.198Z,33.86391
2022-09-27T21:15:03.097Z,33.99459
2022-09-27T21:20:04.014Z,34.02449
2022-09-27T21:25:04.994Z,34.16026
2022-09-27T21:30:05.908Z,34.24243
2022-09-27T21:35:06.878Z,34.18397
2022-09-27T21:40:07.873Z,34.29701
2022-09-27T21:45:08.783Z,34.48677
2022-09-27T21:50:09.682Z,34.6235
2022-09-27T21:55:10.591Z,34.83578
2022-09-27T22:00:11.524Z,34.78258
2022-09-27T22:05:12.439Z,34.75247
2022-09-27T22:10:13.354Z,34.72329
2022-09-27T22:15:14.320Z,34.79326
2022-09-27T22:20:15.238Z,34.73386
2022-09-27T22:25:16.156Z,34.81606
2022-09-27T22:30:17.086Z,34.76934
2022-09-27T22:35:18.023Z,34.72293
2022-09-27T22:40:19.014Z,34.67611
2022-09-27T22:45:19.965Z,34.70021
2022-09-27T22:50:20.901Z,34.76566
2022-09-27T22:55:21.832Z,34.75429
2022-09-27T23:00:22.806Z,34.7315
2022-09-27T23:05:23.773Z,34.78481
2022-09-27T23:10:24.715Z,34.76775
2022-09-27T23:15:25.632Z,34.70978
2022-09-27T23:20:26.550Z,34.83956
2022-09-27T23:25:27.522Z,35.04484
2022-09-27T23:30:28.461Z,34.86875
2022-09-27T23:35:29.376Z,34.88708
2022-09-27T23:40:30.424Z,34.91615
2022-09-27T23:45:31.459Z,34.88026
2022-09-27T23:50:32.496Z,34.89742
2022-09-27T23:55:33.727Z,34.82051
